Miami International Airport
KMIA : now visible

Airfield :











YOU CAN JOIN US ON...

 
LOGIN :

Register | Disclaimer

   EN    FR    IT 

 









Legend :    VFR   Marginal VFR   IFR   Intensive IFR   Very Intensive IFR
Visi :
Ceiling :
>= 8 km
>= 3000ft
5 to 8 km
1000 to 3000 ft
1500m to 5 km
500 to 1000 ft
800 to 1500m
200 to 500 ft
< 800m
< 200 ft
Symbols :   Thunderstorms  Fog  Heavy snow  Heavy precipitations  Wind > 20 kt







- Airport Elevation : 8 ft
- IATA code : MIA


KMIA - Miami International

CURRENT METAR :
  • 190953Z 04003KT 10SM SCT025 SCT045 SCT100 28/22 A3003 RMK AO2 SLP169 T02780222

EXPIRED METARs :
  • 190853Z 03003KT 10SM FEW010 SCT025 SCT100 27/23 A3002 RMK AO2 RAE00 SLP166 P0000 60011 T02670228 58010
  • 190753Z 12006G28KT 4SM R09/4000VP6000FT -RA FEW015 SCT030 SCT045 27/19 A3003 RMK AO2 PK WND 08028/0745 RAB44 SLP169 P0011 T02720189

TAF KMIA
Valid from the 19 at 09:00 until the 20 at 12:00 UTC


190853Z 1909/2012 08005KT P6SM VCSH SCT030 SCT050
FM191400 08011KT P6SM VCSH SCT030 SCT080 SCT250
FM192300 08008KT P6SM FEW030 SCT050 SCT100
FM200200 VRB04KT P6SM SCT030
No reported NOTAMs for that airfield.



MET'MAP, your aeronautical weather chart ! - Copyright ORBIFLY December 2007 - Disclaimer

ORBIFLY MET'MAP TEAM :

Programming & Development : Alexandra Zaïnal
Concept & Development : Baudouin d'Aumeries
Co-Development & Prog : Marc-Olivier Méhu
Technical & hardware support : Manuel Goepfert

Contact : metmap@orbifly.com




SOURCES & CREDITS :

   NOAA       Earth
Advisory